sensor_id;sensor_type;location;lat;lon;timestamp;pressure;altitude;pressure_sealevel;temperature;humidity
26719;BME280;14326;50.794;6.060;2024-03-23T00:54:32;99082.41;;;7.90;100.00
26719;BME280;14326;50.794;6.060;2024-03-23T00:56:58;99066.72;;;8.07;100.00
26719;BME280;14326;50.794;6.060;2024-03-23T00:59:27;99067.50;;;7.98;100.00
26719;BME280;14326;50.794;6.060;2024-03-23T01:01:54;99081.56;;;7.91;100.00
26719;BME280;14326;50.794;6.060;2024-03-23T01:04:20;99072.91;;;8.06;100.00
26719;BME280;14326;50.794;6.060;2024-03-23T01:06:47;99058.94;;;8.23;100.00
26719;BME280;14326;50.794;6.060;2024-03-23T01:09:13;99065.25;;;8.35;100.00
26719;BME280;14326;50.794;6.060;2024-03-23T01:11:40;99059.09;;;8.39;100.00
26719;BME280;14326;50.794;6.060;2024-03-23T01:14:07;99067.06;;;8.39;100.00
26719;BME280;14326;50.794;6.060;2024-03-23T01:16:36;99051.19;;;8.42;100.00
26719;BME280;14326;50.794;6.060;2024-03-23T01:19:03;99067.09;;;8.45;100.00
26719;BME280;14326;50.794;6.060;2024-03-23T01:21:29;99067.13;;;8.49;100.00
26719;BME280;14326;50.794;6.060;2024-03-23T01:23:56;99074.78;;;8.19;100.00
26719;BME280;14326;50.794;6.060;2024-03-23T01:26:22;99062.00;;;7.77;100.00
26719;BME280;14326;50.794;6.060;2024-03-23T01:28:50;99060.78;;;7.48;100.00
26719;BME280;14326;50.794;6.060;2024-03-23T01:31:16;99065.00;;;7.35;100.00
26719;BME280;14326;50.794;6.060;2024-03-23T01:33:43;99073.69;;;7.26;100.00
26719;BME280;14326;50.794;6.060;2024-03-23T01:36:09;99086.66;;;7.08;100.00
26719;BME280;14326;50.794;6.060;2024-03-23T01:38:36;99089.28;;;7.05;100.00
26719;BME280;14326;50.794;6.060;2024-03-23T01:41:11;99092.03;;;7.11;100.00
26719;BME280;14326;50.794;6.060;2024-03-23T01:43:38;99078.91;;;7.20;100.00
26719;BME280;14326;50.794;6.060;2024-03-23T01:46:08;99073.75;;;7.31;100.00
26719;BME280;14326;50.794;6.060;2024-03-23T01:48:35;99073.59;;;7.19;100.00
26719;BME280;14326;50.794;6.060;2024-03-23T01:51:01;99065.50;;;7.05;100.00
26719;BME280;14326;50.794;6.060;2024-03-23T01:53:29;99070.88;;;7.11;100.00
26719;BME280;14326;50.794;6.060;2024-03-23T01:55:55;99071.75;;;7.13;100.00
26719;BME280;14326;50.794;6.060;2024-03-23T01:58:22;99070.09;;;7.20;100.00
26719;BME280;14326;50.794;6.060;2024-03-23T02:00:48;99067.50;;;7.23;100.00
26719;BME280;14326;50.794;6.060;2024-03-23T02:03:26;99068.53;;;7.34;100.00
26719;BME280;14326;50.794;6.060;2024-03-23T02:05:53;99072.16;;;7.44;100.00
26719;BME280;14326;50.794;6.060;2024-03-23T02:08:21;99081.13;;;7.55;100.00
26719;BME280;14326;50.794;6.060;2024-03-23T02:10:48;99083.03;;;7.66;100.00
26719;BME280;14326;50.794;6.060;2024-03-23T02:13:15;99078.69;;;7.70;100.00
26719;BME280;14326;50.794;6.060;2024-03-23T02:15:41;99077.91;;;7.80;100.00
26719;BME280;14326;50.794;6.060;2024-03-23T02:18:08;99089.44;;;7.85;100.00
26719;BME280;14326;50.794;6.060;2024-03-23T02:20:38;99088.53;;;7.83;100.00
26719;BME280;14326;50.794;6.060;2024-03-23T02:23:13;99078.88;;;7.88;100.00
26719;BME280;14326;50.794;6.060;2024-03-23T02:25:42;99074.47;;;7.87;100.00
26719;BME280;14326;50.794;6.060;2024-03-23T02:28:08;99081.59;;;7.94;100.00
26719;BME280;14326;50.794;6.060;2024-03-23T02:30:34;99080.75;;;7.98;100.00
26719;BME280;14326;50.794;6.060;2024-03-23T02:33:01;99075.41;;;7.95;100.00
26719;BME280;14326;50.794;6.060;2024-03-23T02:35:27;99062.25;;;8.00;100.00
26719;BME280;14326;50.794;6.060;2024-03-23T02:37:54;99063.69;;;7.73;100.00
26719;BME280;14326;50.794;6.060;2024-03-23T02:40:22;99044.22;;;7.67;100.00
26719;BME280;14326;50.794;6.060;2024-03-23T02:42:50;99039.78;;;7.66;100.00
26719;BME280;14326;50.794;6.060;2024-03-23T02:45:16;99041.63;;;7.73;100.00
26719;BME280;14326;50.794;6.060;2024-03-23T02:47:43;99039.97;;;7.81;100.00
26719;BME280;14326;50.794;6.060;2024-03-23T02:50:09;99034.81;;;7.93;100.00
26719;BME280;14326;50.794;6.060;2024-03-23T02:52:38;99033.09;;;7.98;100.00
26719;BME280;14326;50.794;6.060;2024-03-23T02:55:04;99032.25;;;8.01;100.00
26719;BME280;14326;50.794;6.060;2024-03-23T02:57:32;99044.66;;;8.09;100.00
26719;BME280;14326;50.794;6.060;2024-03-23T02:59:58;99039.41;;;8.14;100.00
26719;BME280;14326;50.794;6.060;2024-03-23T03:02:25;99033.50;;;7.56;100.00
26719;BME280;14326;50.794;6.060;2024-03-23T03:04:51;99030.09;;;6.97;100.00
26719;BME280;14326;50.794;6.060;2024-03-23T03:07:17;99023.22;;;7.07;100.00
26719;BME280;14326;50.794;6.060;2024-03-23T03:09:44;99023.56;;;7.34;100.00
26719;BME280;14326;50.794;6.060;2024-03-23T03:12:10;99029.84;;;7.42;100.00
26719;BME280;14326;50.794;6.060;2024-03-23T03:14:38;99029.03;;;7.48;100.00
26719;BME280;14326;50.794;6.060;2024-03-23T03:17:05;99030.91;;;7.61;100.00
26719;BME280;14326;50.794;6.060;2024-03-23T03:19:31;99034.53;;;7.69;100.00
26719;BME280;14326;50.794;6.060;2024-03-23T03:21:58;99028.34;;;7.67;100.00
26719;BME280;14326;50.794;6.060;2024-03-23T03:24:24;99047.03;;;7.80;100.00
26719;BME280;14326;50.794;6.060;2024-03-23T03:26:51;99049.69;;;7.83;100.00
26719;BME280;14326;50.794;6.060;2024-03-23T03:29:17;99056.00;;;7.95;100.00
26719;BME280;14326;50.794;6.060;2024-03-23T03:31:45;99081.56;;;7.93;100.00
26719;BME280;14326;50.794;6.060;2024-03-23T03:34:11;99081.56;;;7.93;100.00
26719;BME280;14326;50.794;6.060;2024-03-23T03:36:38;99071.72;;;7.79;100.00
26719;BME280;14326;50.794;6.060;2024-03-23T03:39:04;99067.31;;;7.80;100.00
26719;BME280;14326;50.794;6.060;2024-03-23T03:41:32;99067.31;;;7.80;100.00
26719;BME280;14326;50.794;6.060;2024-03-23T03:43:58;99066.38;;;7.75;100.00
26719;BME280;14326;50.794;6.060;2024-03-23T03:46:27;57030.06;;;-142.25;100.00
26719;BME280;14326;50.794;6.060;2024-03-23T03:49:47;99053.13;;;7.73;100.00
26719;BME280;14326;50.794;6.060;2024-03-23T03:52:13;99051.38;;;7.75;100.00
26719;BME280;14326;50.794;6.060;2024-03-23T03:54:39;99057.47;;;7.65;100.00
26719;BME280;14326;50.794;6.060;2024-03-23T03:57:06;99058.34;;;7.67;100.00
26719;BME280;14326;50.794;6.060;2024-03-23T03:59:32;99062.66;;;7.61;100.00
26719;BME280;14326;50.794;6.060;2024-03-23T04:02:02;99056.47;;;7.57;100.00
26719;BME280;14326;50.794;6.060;2024-03-23T04:04:28;99053.84;;;7.59;100.00
26719;BME280;14326;50.794;6.060;2024-03-23T04:06:59;99053.78;;;7.56;100.00
26719;BME280;14326;50.794;6.060;2024-03-23T04:09:25;99062.56;;;7.52;100.00
26719;BME280;14326;50.794;6.060;2024-03-23T04:11:55;99062.50;;;7.46;100.00
26719;BME280;14326;50.794;6.060;2024-03-23T04:14:22;99059.00;;;7.47;100.00
26719;BME280;14326;50.794;6.060;2024-03-23T04:16:49;99064.31;;;7.50;100.00
26719;BME280;14326;50.794;6.060;2024-03-23T04:19:15;99069.56;;;7.48;100.00
26719;BME280;14326;50.794;6.060;2024-03-23T04:21:42;99065.13;;;7.44;100.00
26719;BME280;14326;50.794;6.060;2024-03-23T04:24:09;99061.50;;;7.36;100.00
26719;BME280;14326;50.794;6.060;2024-03-23T04:26:40;99069.47;;;7.39;100.00
26719;BME280;14326;50.794;6.060;2024-03-23T04:29:09;99061.50;;;7.36;100.00
26719;BME280;14326;50.794;6.060;2024-03-23T04:31:36;99055.16;;;7.23;100.00
26719;BME280;14326;50.794;6.060;2024-03-23T04:34:02;99050.69;;;7.19;100.00
26719;BME280;14326;50.794;6.060;2024-03-23T04:36:29;99054.16;;;7.15;100.00
26719;BME280;14326;50.794;6.060;2024-03-23T04:38:56;99059.47;;;7.17;100.00
26719;BME280;14326;50.794;6.060;2024-03-23T04:41:24;99054.25;;;7.21;100.00
26719;BME280;14326;50.794;6.060;2024-03-23T04:43:51;99054.09;;;7.11;100.00
26719;BME280;14326;50.794;6.060;2024-03-23T04:46:18;99052.44;;;7.17;100.00
26719;BME280;14326;50.794;6.060;2024-03-23T04:48:46;99057.63;;;7.11;100.00
26719;BME280;14326;50.794;6.060;2024-03-23T04:51:20;99068.19;;;7.10;100.00
26719;BME280;14326;50.794;6.060;2024-03-23T04:53:47;99061.19;;;7.15;100.00
26719;BME280;14326;50.794;6.060;2024-03-23T04:56:14;99063.81;;;7.13;100.00
26719;BME280;14326;50.794;6.060;2024-03-23T04:58:42;99056.88;;;7.21;100.00
26719;BME280;14326;50.794;6.060;2024-03-23T05:01:09;99057.78;;;7.22;100.00
26719;BME280;14326;50.794;6.060;2024-03-23T05:03:36;99063.97;;;7.22;100.00
26719;BME280;14326;50.794;6.060;2024-03-23T05:06:02;99059.50;;;7.20;100.00
26719;BME280;14326;50.794;6.060;2024-03-23T05:08:28;99065.66;;;7.19;100.00
26719;BME280;14326;50.794;6.060;2024-03-23T05:10:54;99051.47;;;7.11;100.00
26719;BME280;14326;50.794;6.060;2024-03-23T05:13:21;99060.97;;;6.98;100.00
26719;BME280;14326;50.794;6.060;2024-03-23T05:15:52;99060.09;;;6.97;100.00
26719;BME280;14326;50.794;6.060;2024-03-23T05:18:19;99060.88;;;6.92;100.00
26719;BME280;14326;50.794;6.060;2024-03-23T05:20:45;99069.66;;;6.89;100.00
26719;BME280;14326;50.794;6.060;2024-03-23T05:23:12;99062.59;;;6.88;100.00
26719;BME280;14326;50.794;6.060;2024-03-23T05:25:38;99065.25;;;6.90;100.00
26719;BME280;14326;50.794;6.060;2024-03-23T05:28:08;99066.75;;;6.73;100.00
26719;BME280;14326;50.794;6.060;2024-03-23T05:30:34;99069.41;;;6.73;100.00
26719;BME280;14326;50.794;6.060;2024-03-23T05:33:02;99065.88;;;6.71;100.00
26719;BME280;14326;50.794;6.060;2024-03-23T05:35:28;99061.47;;;6.73;100.00
26719;BME280;14326;50.794;6.060;2024-03-23T05:37:55;99077.28;;;6.70;100.00
26719;BME280;14326;50.794;6.060;2024-03-23T05:40:21;99084.38;;;6.71;100.00
26719;BME280;14326;50.794;6.060;2024-03-23T05:42:47;99078.25;;;6.75;100.00
26719;BME280;14326;50.794;6.060;2024-03-23T05:45:14;99079.97;;;6.73;100.00
26719;BME280;14326;50.794;6.060;2024-03-23T05:47:44;99077.34;;;6.74;100.00
26719;BME280;14326;50.794;6.060;2024-03-23T05:50:11;99079.19;;;6.80;100.00
26719;BME280;14326;50.794;6.060;2024-03-23T05:52:38;99076.44;;;6.71;100.00
26719;BME280;14326;50.794;6.060;2024-03-23T05:55:05;99073.00;;;6.76;100.00
26719;BME280;14326;50.794;6.060;2024-03-23T05:57:32;99068.47;;;6.69;100.00
26719;BME280;14326;50.794;6.060;2024-03-23T05:59:58;99067.63;;;6.72;100.00
26719;BME280;14326;50.794;6.060;2024-03-23T06:02:25;99070.34;;;6.76;100.00
26719;BME280;14326;50.794;6.060;2024-03-23T06:04:51;99074.03;;;6.87;100.00
26719;BME280;14326;50.794;6.060;2024-03-23T06:07:21;99076.94;;;7.07;100.00
26719;BME280;14326;50.794;6.060;2024-03-23T06:09:47;99072.78;;;7.23;100.00
26719;BME280;14326;50.794;6.060;2024-03-23T06:12:16;99073.72;;;7.28;100.00
26719;BME280;14326;50.794;6.060;2024-03-23T06:14:42;99073.78;;;7.32;100.00
26719;BME280;14326;50.794;6.060;2024-03-23T06:17:08;99076.44;;;7.32;100.00
26719;BME280;14326;50.794;6.060;2024-03-23T06:19:34;99086.25;;;7.41;100.00
26719;BME280;14326;50.794;6.060;2024-03-23T06:22:04;99081.84;;;7.40;100.00
26719;BME280;14326;50.794;6.060;2024-03-23T06:24:33;99088.94;;;7.46;100.00
26719;BME280;14326;50.794;6.060;2024-03-23T06:27:00;99090.84;;;7.56;100.00
26719;BME280;14326;50.794;6.060;2024-03-23T06:29:25;99090.97;;;7.66;100.00
26719;BME280;14326;50.794;6.060;2024-03-23T06:31:53;99089.38;;;7.80;100.00
26719;BME280;14326;50.794;6.060;2024-03-23T06:34:19;99091.28;;;7.92;100.00
26719;BME280;14326;50.794;6.060;2024-03-23T06:36:47;99093.59;;;8.42;100.00
26719;BME280;14326;50.794;6.060;2024-03-23T06:39:12;99095.19;;;9.36;100.00
26719;BME280;14326;50.794;6.060;2024-03-23T06:41:42;99075.16;;;10.74;100.00
26719;BME280;14326;50.794;6.060;2024-03-23T06:44:07;99063.28;;;11.96;94.60
26719;BME280;14326;50.794;6.060;2024-03-23T06:46:34;99070.56;;;12.98;85.58
26719;BME280;14326;50.794;6.060;2024-03-23T06:49:00;99076.94;;;12.80;84.32
26719;BME280;14326;50.794;6.060;2024-03-23T06:51:26;99084.53;;;12.16;86.15
26719;BME280;14326;50.794;6.060;2024-03-23T06:53:52;99077.22;;;12.47;84.85
26719;BME280;14326;50.794;6.060;2024-03-23T06:56:19;99082.06;;;13.03;80.98
26719;BME280;14326;50.794;6.060;2024-03-23T06:58:46;99081.19;;;13.02;79.38
26719;BME280;14326;50.794;6.060;2024-03-23T07:01:13;99090.44;;;12.62;79.69
26719;BME280;14326;50.794;6.060;2024-03-23T07:03:39;99091.25;;;12.71;80.74
26719;BME280;14326;50.794;6.060;2024-03-23T07:06:06;99090.63;;;12.31;83.06
26719;BME280;14326;50.794;6.060;2024-03-23T07:08:32;99099.78;;;11.88;86.16
26719;BME280;14326;50.794;6.060;2024-03-23T07:10:58;99093.69;;;11.48;87.87
26719;BME280;14326;50.794;6.060;2024-03-23T07:13:24;99092.91;;;10.81;92.15
26719;BME280;14326;50.794;6.060;2024-03-23T07:15:52;99099.09;;;10.36;95.62
26719;BME280;14326;50.794;6.060;2024-03-23T07:18:18;99104.19;;;9.79;100.00
26719;BME280;14326;50.794;6.060;2024-03-23T07:20:52;99108.66;;;9.86;100.00
26719;BME280;14326;50.794;6.060;2024-03-23T07:23:18;99104.28;;;10.01;100.00
26719;BME280;14326;50.794;6.060;2024-03-23T07:25:45;99091.97;;;10.16;100.00
26719;BME280;14326;50.794;6.060;2024-03-23T07:28:10;99092.75;;;9.94;100.00
26719;BME280;14326;50.794;6.060;2024-03-23T07:30:47;99098.03;;;9.90;100.00
26719;BME280;14326;50.794;6.060;2024-03-23T07:33:14;99088.44;;;10.34;100.00
26719;BME280;14326;50.794;6.060;2024-03-23T07:35:41;99085.81;;;10.46;100.00
26719;BME280;14326;50.794;6.060;2024-03-23T07:38:07;99084.03;;;10.56;99.79
26719;BME280;14326;50.794;6.060;2024-03-23T07:40:34;99085.81;;;10.95;97.09
26719;BME280;14326;50.794;6.060;2024-03-23T07:43:00;99093.78;;;10.87;97.20
26719;BME280;14326;50.794;6.060;2024-03-23T07:45:27;99082.28;;;10.78;96.11
26719;BME280;14326;50.794;6.060;2024-03-23T07:47:52;99087.59;;;10.59;95.56
26719;BME280;14326;50.794;6.060;2024-03-23T07:50:20;99085.78;;;10.92;95.88
26719;BME280;14326;50.794;6.060;2024-03-23T07:52:46;99084.84;;;11.28;93.35
26719;BME280;14326;50.794;6.060;2024-03-23T07:55:13;99091.88;;;11.55;88.62
26719;BME280;14326;50.794;6.060;2024-03-23T07:57:39;99082.06;;;11.69;87.30
26719;BME280;14326;50.794;6.060;2024-03-23T08:00:07;99084.78;;;11.54;85.28
26719;BME280;14326;50.794;6.060;2024-03-23T08:02:33;99091.97;;;11.24;86.06
26719;BME280;14326;50.794;6.060;2024-03-23T08:05:00;99097.31;;;11.12;87.60
26719;BME280;14326;50.794;6.060;2024-03-23T08:07:27;99104.44;;;11.01;88.93
26719;BME280;14326;50.794;6.060;2024-03-23T08:09:54;99111.50;;;10.61;89.38
26719;BME280;14326;50.794;6.060;2024-03-23T08:12:20;99106.16;;;10.34;91.21
26719;BME280;14326;50.794;6.060;2024-03-23T08:14:46;99117.53;;;9.89;91.59
26719;BME280;14326;50.794;6.060;2024-03-23T08:17:12;99120.09;;;9.66;95.69
26719;BME280;14326;50.794;6.060;2024-03-23T08:19:42;99119.09;;;9.41;96.98
26719;BME280;14326;50.794;6.060;2024-03-23T08:22:08;99127.84;;;9.28;97.96
26719;BME280;14326;50.794;6.060;2024-03-23T08:24:36;99118.22;;;9.42;99.85
26719;BME280;14326;50.794;6.060;2024-03-23T08:27:02;99120.00;;;9.51;98.74
26719;BME280;14326;50.794;6.060;2024-03-23T08:29:30;99118.34;;;9.72;97.43
26719;BME280;14326;50.794;6.060;2024-03-23T08:31:56;99119.22;;;9.68;98.19
26719;BME280;14326;50.794;6.060;2024-03-23T08:34:23;99120.19;;;9.87;96.65
26719;BME280;14326;50.794;6.060;2024-03-23T08:36:48;99102.63;;;10.29;96.12
26719;BME280;14326;50.794;6.060;2024-03-23T08:39:16;99103.53;;;10.40;92.33
26719;BME280;14326;50.794;6.060;2024-03-23T08:41:43;99111.47;;;10.27;94.87
26719;BME280;14326;50.794;6.060;2024-03-23T08:44:11;99122.00;;;10.08;93.66
26719;BME280;14326;50.794;6.060;2024-03-23T08:46:37;99128.22;;;10.08;93.23
26719;BME280;14326;50.794;6.060;2024-03-23T08:49:04;99122.00;;;10.00;95.55
26719;BME280;14326;50.794;6.060;2024-03-23T08:51:30;99120.19;;;9.92;94.13
26719;BME280;14326;50.794;6.060;2024-03-23T08:54:03;99126.28;;;9.72;93.00
26719;BME280;14326;50.794;6.060;2024-03-23T08:56:29;99111.19;;;9.58;95.06
26719;BME280;14326;50.794;6.060;2024-03-23T08:59:00;99120.66;;;9.15;95.17
26719;BME280;14326;50.794;6.060;2024-03-23T09:01:26;99125.94;;;9.07;96.08
26719;BME280;14326;50.794;6.060;2024-03-23T09:03:52;99118.06;;;9.22;96.47
26719;BME280;14326;50.794;6.060;2024-03-23T09:06:18;99110.97;;;9.17;96.56
26719;BME280;14326;50.794;6.060;2024-03-23T09:08:45;99115.34;;;9.13;96.41
26719;BME280;14326;50.794;6.060;2024-03-23T09:11:12;99114.59;;;9.34;95.10
26719;BME280;14326;50.794;6.060;2024-03-23T09:13:40;99117.38;;;9.54;95.53
26719;BME280;14326;50.794;6.060;2024-03-23T09:16:08;99114.66;;;9.40;93.64
26719;BME280;14326;50.794;6.060;2024-03-23T09:18:36;99119.03;;;9.33;95.55
26719;BME280;14326;50.794;6.060;2024-03-23T09:21:02;99129.44;;;9.04;97.56
26719;BME280;14326;50.794;6.060;2024-03-23T09:23:30;99125.63;;;8.68;100.00
26719;BME280;14326;50.794;6.060;2024-03-23T09:25:56;99121.94;;;8.52;100.00
26719;BME280;14326;50.794;6.060;2024-03-23T09:28:23;99135.00;;;8.32;100.00
26719;BME280;14326;50.794;6.060;2024-03-23T09:30:52;99139.16;;;8.13;100.00
26719;BME280;14326;50.794;6.060;2024-03-23T09:33:20;99140.06;;;8.14;100.00
26719;BME280;14326;50.794;6.060;2024-03-23T09:35:45;99137.38;;;8.09;100.00
26719;BME280;14326;50.794;6.060;2024-03-23T09:38:12;99138.31;;;8.14;100.00
26719;BME280;14326;50.794;6.060;2024-03-23T09:40:41;99134.69;;;8.06;100.00
26719;BME280;14326;50.794;6.060;2024-03-23T09:43:07;99128.44;;;8.01;100.00
26719;BME280;14326;50.794;6.060;2024-03-23T09:45:38;99126.75;;;8.08;100.00
26719;BME280;14326;50.794;6.060;2024-03-23T09:48:05;99128.63;;;8.16;100.00
26719;BME280;14326;50.794;6.060;2024-03-23T09:50:33;99124.25;;;8.21;100.00
26719;BME280;14326;50.794;6.060;2024-03-23T09:52:59;99118.38;;;8.50;99.96
26719;BME280;14326;50.794;6.060;2024-03-23T09:55:26;99111.66;;;8.91;100.00
26719;BME280;14326;50.794;6.060;2024-03-23T09:57:52;99110.13;;;9.27;100.00
26719;BME280;14326;50.794;6.060;2024-03-23T10:00:19;99100.50;;;9.44;95.05
26719;BME280;14326;50.794;6.060;2024-03-23T10:02:45;99112.09;;;9.63;96.11
26719;BME280;14326;50.794;6.060;2024-03-23T10:05:20;99102.47;;;9.86;93.00
26719;BME280;14326;50.794;6.060;2024-03-23T10:07:48;99101.66;;;10.11;91.23
26719;BME280;14326;50.794;6.060;2024-03-23T10:10:16;99102.63;;;10.39;91.92
26719;BME280;14326;50.794;6.060;2024-03-23T10:12:44;99110.63;;;10.50;91.36
26719;BME280;14326;50.794;6.060;2024-03-23T10:15:18;99117.69;;;10.37;88.17
26719;BME280;14326;50.794;6.060;2024-03-23T10:17:44;99099.00;;;10.14;87.67
26719;BME280;14326;50.794;6.060;2024-03-23T10:20:11;99098.06;;;9.94;89.36
26719;BME280;14326;50.794;6.060;2024-03-23T10:22:38;99101.50;;;9.69;90.13
26719;BME280;14326;50.794;6.060;2024-03-23T10:25:10;99105.00;;;9.57;88.89
26719;BME280;14326;50.794;6.060;2024-03-23T10:27:36;99100.53;;;9.47;90.05
26719;BME280;14326;50.794;6.060;2024-03-23T10:30:10;99112.88;;;9.36;91.97
26719;BME280;14326;50.794;6.060;2024-03-23T10:32:37;99097.84;;;9.36;90.41
26719;BME280;14326;50.794;6.060;2024-03-23T10:35:17;99103.06;;;9.27;90.54
26719;BME280;14326;50.794;6.060;2024-03-23T10:37:49;99110.22;;;9.36;91.24
26719;BME280;14326;50.794;6.060;2024-03-23T10:40:23;99104.88;;;9.30;86.64
26719;BME280;14326;50.794;6.060;2024-03-23T10:42:51;99091.66;;;9.42;86.76
26719;BME280;14326;50.794;6.060;2024-03-23T10:45:19;99083.72;;;9.47;83.81
26719;BME280;14326;50.794;6.060;2024-03-23T10:47:45;99080.25;;;9.60;85.52
26719;BME280;14326;50.794;6.060;2024-03-23T10:50:13;99087.41;;;9.77;87.67
26719;BME280;14326;50.794;6.060;2024-03-23T10:52:38;99084.81;;;10.03;86.98
26719;BME280;14326;50.794;6.060;2024-03-23T10:55:12;99084.00;;;10.22;85.81
26719;BME280;14326;50.794;6.060;2024-03-23T10:57:43;99087.47;;;10.05;79.60
26719;BME280;14326;50.794;6.060;2024-03-23T11:00:13;99077.78;;;10.17;78.50
26719;BME280;14326;50.794;6.060;2024-03-23T11:02:40;99072.50;;;10.39;77.77
26719;BME280;14326;50.794;6.060;2024-03-23T11:05:28;99078.72;;;10.65;74.69
26719;BME280;14326;50.794;6.060;2024-03-23T11:07:55;99068.06;;;10.92;72.68
26719;BME280;14326;50.794;6.060;2024-03-23T11:10:26;99066.31;;;10.84;70.93
26719;BME280;14326;50.794;6.060;2024-03-23T11:12:53;99086.69;;;10.94;69.62
26719;BME280;14326;50.794;6.060;2024-03-23T11:15:20;99077.78;;;11.18;73.22
26719;BME280;14326;50.794;6.060;2024-03-23T11:18:04;99081.25;;;11.45;71.43
26719;BME280;14326;50.794;6.060;2024-03-23T11:20:34;99083.94;;;11.39;69.76
26719;BME280;14326;50.794;6.060;2024-03-23T11:23:00;99083.13;;;11.10;68.81
26719;BME280;14326;50.794;6.060;2024-03-23T11:25:28;99089.28;;;11.33;70.17
26719;BME280;14326;50.794;6.060;2024-03-23T11:27:56;99075.94;;;11.48;68.49
26719;BME280;14326;50.794;6.060;2024-03-23T11:30:24;99084.81;;;11.43;65.54
26719;BME280;14326;50.794;6.060;2024-03-23T11:32:51;99080.41;;;11.25;65.37
26719;BME280;14326;50.794;6.060;2024-03-23T11:35:26;99080.41;;;11.25;65.37
26719;BME280;14326;50.794;6.060;2024-03-23T11:38:06;99077.78;;;11.02;63.71
26719;BME280;14326;50.794;6.060;2024-03-23T11:40:33;99077.78;;;11.02;63.71
26719;BME280;14326;50.794;6.060;2024-03-23T11:43:02;57030.06;;;-142.25;100.00
26719;BME280;14326;50.794;6.060;2024-03-23T11:45:48;99076.94;;;11.06;60.28
26719;BME280;14326;50.794;6.060;2024-03-23T11:48:19;99070.75;;;10.83;59.85
26719;BME280;14326;50.794;6.060;2024-03-23T11:50:47;99063.66;;;10.41;60.70
26719;BME280;14326;50.794;6.060;2024-03-23T11:53:15;99058.34;;;10.35;62.89
26719;BME280;14326;50.794;6.060;2024-03-23T11:55:43;99055.63;;;10.20;64.32
26719;BME280;14326;50.794;6.060;2024-03-23T11:58:10;99061.78;;;10.04;65.27
26719;BME280;14326;50.794;6.060;2024-03-23T12:00:40;99091.84;;;9.92;69.31
26719;BME280;14326;50.794;6.060;2024-03-23T12:03:08;99111.88;;;9.22;69.12
26719;BME280;14326;50.794;6.060;2024-03-23T12:05:50;99087.22;;;8.25;73.86
26719;BME280;14326;50.794;6.060;2024-03-23T12:08:21;99091.59;;;8.22;84.62
26719;BME280;14326;50.794;6.060;2024-03-23T12:10:48;99080.06;;;8.16;88.53
26719;BME280;14326;50.794;6.060;2024-03-23T12:13:17;99071.31;;;8.26;89.89
26719;BME280;14326;50.794;6.060;2024-03-23T12:15:43;99067.00;;;8.33;90.10
26719;BME280;14326;50.794;6.060;2024-03-23T12:18:12;99057.50;;;8.57;90.54
26719;BME280;14326;50.794;6.060;2024-03-23T12:20:38;99058.69;;;9.00;89.96
26719;BME280;14326;50.794;6.060;2024-03-23T12:23:09;99049.22;;;9.53;89.83
26719;BME280;14326;50.794;6.060;2024-03-23T12:25:36;99034.31;;;10.02;87.78
26719;BME280;14326;50.794;6.060;2024-03-23T12:28:03;99026.41;;;10.18;80.77
26719;BME280;14326;50.794;6.060;2024-03-23T12:30:31;99014.03;;;10.36;77.30
26719;BME280;14326;50.794;6.060;2024-03-23T12:32:58;99029.06;;;10.50;74.98
26719;BME280;14326;50.794;6.060;2024-03-23T12:35:27;99037.94;;;10.40;72.44
26719;BME280;14326;50.794;6.060;2024-03-23T12:37:54;99037.00;;;10.09;69.93
26719;BME280;14326;50.794;6.060;2024-03-23T12:40:19;99037.88;;;10.04;74.80
26719;BME280;14326;50.794;6.060;2024-03-23T12:42:46;99037.84;;;9.89;70.32
26719;BME280;14326;50.794;6.060;2024-03-23T12:45:12;99028.97;;;9.86;72.00
26719;BME280;14326;50.794;6.060;2024-03-23T12:47:39;99019.25;;;9.95;73.29
26719;BME280;14326;50.794;6.060;2024-03-23T12:50:05;99015.69;;;9.91;73.54
26719;BME280;14326;50.794;6.060;2024-03-23T12:52:35;99028.94;;;9.79;74.23
26719;BME280;14326;50.794;6.060;2024-03-23T12:55:01;99023.63;;;9.74;73.68
26719;BME280;14326;50.794;6.060;2024-03-23T12:57:28;99024.50;;;9.73;74.30
26719;BME280;14326;50.794;6.060;2024-03-23T12:59:54;99009.44;;;9.62;75.46
26719;BME280;14326;50.794;6.060;2024-03-23T13:02:21;99004.13;;;9.66;78.85
26719;BME280;14326;50.794;6.060;2024-03-23T13:04:50;99007.66;;;9.62;74.34
26719;BME280;14326;50.794;6.060;2024-03-23T13:07:17;99003.25;;;9.60;73.79
26719;BME280;14326;50.794;6.060;2024-03-23T13:09:44;99009.38;;;9.45;71.73
26719;BME280;14326;50.794;6.060;2024-03-23T13:12:12;99019.00;;;9.20;79.27
26719;BME280;14326;50.794;6.060;2024-03-23T13:14:38;99012.66;;;8.88;82.30
26719;BME280;14326;50.794;6.060;2024-03-23T13:17:06;99027.50;;;8.63;86.40
26719;BME280;14326;50.794;6.060;2024-03-23T13:19:34;99022.16;;;8.57;87.03
26719;BME280;14326;50.794;6.060;2024-03-23T13:22:01;99015.88;;;8.46;86.90
26719;BME280;14326;50.794;6.060;2024-03-23T16:27:46;98922.91;;;8.20;94.41
26719;BME280;14326;50.794;6.060;2024-03-23T16:30:13;98923.03;;;8.32;95.31
26719;BME280;14326;50.794;6.060;2024-03-23T16:32:41;98915.19;;;8.46;92.96
26719;BME280;14326;50.794;6.060;2024-03-23T16:35:08;98912.53;;;8.49;91.41
26719;BME280;14326;50.794;6.060;2024-03-23T16:37:35;98916.16;;;8.63;91.22
26719;BME280;14326;50.794;6.060;2024-03-23T16:40:02;98918.81;;;8.63;89.55
26719;BME280;14326;50.794;6.060;2024-03-23T16:42:27;98921.44;;;8.57;91.48
26719;BME280;14326;50.794;6.060;2024-03-23T16:44:56;98918.75;;;8.48;90.67
26719;BME280;14326;50.794;6.060;2024-03-23T16:47:21;98924.88;;;8.44;91.24
26719;BME280;14326;50.794;6.060;2024-03-23T16:49:48;98915.09;;;8.37;91.01
26719;BME280;14326;50.794;6.060;2024-03-23T16:52:14;98914.22;;;8.35;90.45
26719;BME280;14326;50.794;6.060;2024-03-23T16:54:41;98908.03;;;8.34;90.78
26719;BME280;14326;50.794;6.060;2024-03-23T16:57:07;98910.63;;;8.30;92.08
26719;BME280;14326;50.794;6.060;2024-03-23T16:59:33;98901.81;;;8.31;91.26
26719;BME280;14326;50.794;6.060;2024-03-23T17:02:01;98901.03;;;8.41;92.41